sensor_id;sensor_type;location;lat;lon;timestamp;pressure;altitude;pressure_sealevel;temperature;humidity
36598;BME280;22607;49.550;11.940;2022-10-16T00:00:04;96793.78;;;15.89;100.00
36598;BME280;22607;49.550;11.940;2022-10-16T00:02:30;96791.97;;;15.90;100.00
36598;BME280;22607;49.550;11.940;2022-10-16T00:04:57;96795.03;;;15.86;100.00
36598;BME280;22607;49.550;11.940;2022-10-16T00:07:23;96795.84;;;15.87;100.00
36598;BME280;22607;49.550;11.940;2022-10-16T00:09:50;96803.16;;;15.85;100.00
36598;BME280;22607;49.550;11.940;2022-10-16T00:12:16;96800.31;;;15.80;100.00
36598;BME280;22607;49.550;11.940;2022-10-16T00:14:43;96797.88;;;15.85;100.00
36598;BME280;22607;49.550;11.940;2022-10-16T00:17:10;96794.63;;;15.83;100.00
36598;BME280;22607;49.550;11.940;2022-10-16T00:19:36;96803.16;;;15.85;100.00
36598;BME280;22607;49.550;11.940;2022-10-16T00:22:02;96809.50;;;15.84;100.00
36598;BME280;22607;49.550;11.940;2022-10-16T00:24:29;96804.81;;;15.86;100.00
36598;BME280;22607;49.550;11.940;2022-10-16T00:26:55;96817.63;;;15.82;100.00
36598;BME280;22607;49.550;11.940;2022-10-16T00:29:22;96816.22;;;15.80;100.00
36598;BME280;22607;49.550;11.940;2022-10-16T00:31:48;96808.69;;;15.83;100.00
36598;BME280;22607;49.550;11.940;2022-10-16T00:34:14;96810.72;;;15.81;100.00
36598;BME280;22607;49.550;11.940;2022-10-16T00:36:41;96811.56;;;15.68;100.00
36598;BME280;22607;49.550;11.940;2022-10-16T00:39:07;96808.25;;;15.86;100.00
36598;BME280;22607;49.550;11.940;2022-10-16T00:41:34;96812.16;;;15.77;100.00
36598;BME280;22607;49.550;11.940;2022-10-16T00:44:01;96804.22;;;15.70;100.00
36598;BME280;22607;49.550;11.940;2022-10-16T00:46:29;96802.19;;;15.72;100.00
36598;BME280;22607;49.550;11.940;2022-10-16T00:51:25;96805.63;;;15.80;100.00
36598;BME280;22607;49.550;11.940;2022-10-16T00:53:54;96807.22;;;15.87;100.00
36598;BME280;22607;49.550;11.940;2022-10-16T00:56:21;96811.34;;;15.83;100.00
36598;BME280;22607;49.550;11.940;2022-10-16T00:58:47;96810.91;;;15.80;100.00
36598;BME280;22607;49.550;11.940;2022-10-16T01:01:14;96811.38;;;15.63;100.00
36598;BME280;22607;49.550;11.940;2022-10-16T01:03:40;96821.53;;;15.73;100.00
36598;BME280;22607;49.550;11.940;2022-10-16T01:08:37;96814.41;;;15.80;100.00
36598;BME280;22607;49.550;11.940;2022-10-16T01:14:06;96814.59;;;15.79;100.00
36598;BME280;22607;49.550;11.940;2022-10-16T01:16:44;96809.94;;;15.81;100.00
36598;BME280;22607;49.550;11.940;2022-10-16T01:19:36;96816.00;;;15.81;100.00
36598;BME280;22607;49.550;11.940;2022-10-16T01:22:03;96825.19;;;15.65;100.00
36598;BME280;22607;49.550;11.940;2022-10-16T01:24:40;96831.50;;;15.64;100.00
36598;BME280;22607;49.550;11.940;2022-10-16T01:32:16;96819.09;;;15.71;100.00
36598;BME280;22607;49.550;11.940;2022-10-16T01:34:53;96817.44;;;15.70;100.00
36598;BME280;22607;49.550;11.940;2022-10-16T01:37:25;96822.34;;;15.73;100.00
36598;BME280;22607;49.550;11.940;2022-10-16T01:39:55;96809.50;;;15.77;100.00
36598;BME280;22607;49.550;11.940;2022-10-16T01:42:26;96810.13;;;15.79;100.00
36598;BME280;22607;49.550;11.940;2022-10-16T01:44:55;96810.72;;;15.74;100.00
36598;BME280;22607;49.550;11.940;2022-10-16T01:47:22;96816.03;;;15.74;100.00
36598;BME280;22607;49.550;11.940;2022-10-16T01:49:51;96815.22;;;15.74;100.00
36598;BME280;22607;49.550;11.940;2022-10-16T01:52:20;96816.03;;;15.68;100.00
36598;BME280;22607;49.550;11.940;2022-10-16T01:54:47;96815.81;;;15.69;100.00
36598;BME280;22607;49.550;11.940;2022-10-16T01:57:15;96819.69;;;15.73;100.00
36598;BME280;22607;49.550;11.940;2022-10-16T01:59:44;96819.69;;;15.73;100.00
36598;BME280;22607;49.550;11.940;2022-10-16T02:02:12;96821.53;;;15.73;100.00
36598;BME280;22607;49.550;11.940;2022-10-16T02:04:40;96827.44;;;15.75;100.00
36598;BME280;22607;49.550;11.940;2022-10-16T02:07:08;96816.03;;;15.68;100.00
36598;BME280;22607;49.550;11.940;2022-10-16T02:09:35;96826.81;;;15.66;100.00
36598;BME280;22607;49.550;11.940;2022-10-16T02:12:10;96822.75;;;15.57;100.00
36598;BME280;22607;49.550;11.940;2022-10-16T02:14:39;96815.03;;;15.62;100.00
36598;BME280;22607;49.550;11.940;2022-10-16T02:17:10;96821.94;;;15.63;100.00
36598;BME280;22607;49.550;11.940;2022-10-16T02:19:37;96825.63;;;15.62;100.00
36598;BME280;22607;49.550;11.940;2022-10-16T02:22:09;96826.22;;;15.64;100.00
36598;BME280;22607;49.550;11.940;2022-10-16T02:24:43;96820.72;;;15.59;100.00
36598;BME280;22607;49.550;11.940;2022-10-16T02:29:50;96828.47;;;15.67;100.00
36598;BME280;22607;49.550;11.940;2022-10-16T02:32:19;96832.75;;;15.68;100.00
36598;BME280;22607;49.550;11.940;2022-10-16T02:34:48;96848.00;;;15.66;100.00
36598;BME280;22607;49.550;11.940;2022-10-16T02:37:15;96862.25;;;15.65;100.00
36598;BME280;22607;49.550;11.940;2022-10-16T02:39:42;96864.09;;;15.71;100.00
36598;BME280;22607;49.550;11.940;2022-10-16T02:42:12;96864.91;;;15.65;100.00
36598;BME280;22607;49.550;11.940;2022-10-16T02:44:39;96867.16;;;15.55;100.00
36598;BME280;22607;49.550;11.940;2022-10-16T02:47:05;96871.00;;;15.45;100.00
36598;BME280;22607;49.550;11.940;2022-10-16T02:49:32;96863.91;;;15.53;100.00
36598;BME280;22607;49.550;11.940;2022-10-16T02:51:58;96863.06;;;15.45;100.00
36598;BME280;22607;49.550;11.940;2022-10-16T02:54:25;96865.53;;;15.60;100.00
36598;BME280;22607;49.550;11.940;2022-10-16T02:56:51;96864.69;;;15.60;100.00
36598;BME280;22607;49.550;11.940;2022-10-16T02:59:19;96864.50;;;15.68;100.00
36598;BME280;22607;49.550;11.940;2022-10-16T03:01:45;96860.63;;;15.64;100.00
36598;BME280;22607;49.550;11.940;2022-10-16T03:04:12;96861.22;;;15.66;100.00
36598;BME280;22607;49.550;11.940;2022-10-16T03:06:38;96861.66;;;15.63;100.00
36598;BME280;22607;49.550;11.940;2022-10-16T03:09:04;96851.06;;;15.63;100.00
36598;BME280;22607;49.550;11.940;2022-10-16T03:11:31;96854.50;;;15.57;100.00
36598;BME280;22607;49.550;11.940;2022-10-16T03:13:57;96853.72;;;15.56;100.00
36598;BME280;22607;49.550;11.940;2022-10-16T03:16:23;96863.88;;;15.59;100.00
36598;BME280;22607;49.550;11.940;2022-10-16T03:18:50;96862.69;;;15.48;100.00
36598;BME280;22607;49.550;11.940;2022-10-16T03:21:16;96860.22;;;15.54;100.00
36598;BME280;22607;49.550;11.940;2022-10-16T03:23:43;96861.47;;;15.51;100.00
36598;BME280;22607;49.550;11.940;2022-10-16T03:26:09;96854.94;;;15.47;100.00
36598;BME280;22607;49.550;11.940;2022-10-16T03:28:35;96855.72;;;15.54;100.00
36598;BME280;22607;49.550;11.940;2022-10-16T03:31:02;96860.63;;;15.57;100.00
36598;BME280;22607;49.550;11.940;2022-10-16T03:33:28;96866.31;;;15.47;100.00
36598;BME280;22607;49.550;11.940;2022-10-16T03:35:55;96873.28;;;15.55;100.00
36598;BME280;22607;49.550;11.940;2022-10-16T03:38:22;96863.91;;;15.53;100.00
36598;BME280;22607;49.550;11.940;2022-10-16T03:40:48;96867.53;;;15.52;100.00
36598;BME280;22607;49.550;11.940;2022-10-16T03:43:14;96863.91;;;15.39;100.00
36598;BME280;22607;49.550;11.940;2022-10-16T03:45:41;96865.53;;;15.47;100.00
36598;BME280;22607;49.550;11.940;2022-10-16T03:48:08;96867.53;;;15.52;100.00
36598;BME280;22607;49.550;11.940;2022-10-16T03:50:35;96873.06;;;15.43;100.00
36598;BME280;22607;49.550;11.940;2022-10-16T03:53:01;96871.41;;;15.42;100.00
36598;BME280;22607;49.550;11.940;2022-10-16T03:55:28;96873.66;;;15.45;100.00
36598;BME280;22607;49.550;11.940;2022-10-16T03:57:54;96877.94;;;15.46;100.00
36598;BME280;22607;49.550;11.940;2022-10-16T04:00:21;96875.28;;;15.46;100.00
36598;BME280;22607;49.550;11.940;2022-10-16T04:02:47;96857.19;;;15.43;100.00
36598;BME280;22607;49.550;11.940;2022-10-16T04:05:14;96870.81;;;15.54;100.00
36598;BME280;22607;49.550;11.940;2022-10-16T04:07:40;96873.66;;;15.52;100.00
36598;BME280;22607;49.550;11.940;2022-10-16T04:10:07;96875.28;;;15.60;100.00
36598;BME280;22607;49.550;11.940;2022-10-16T04:12:34;96873.28;;;15.62;100.00
36598;BME280;22607;49.550;11.940;2022-10-16T04:15:00;96882.84;;;15.63;100.00
36598;BME280;22607;49.550;11.940;2022-10-16T04:17:27;96887.09;;;15.64;100.00
36598;BME280;22607;49.550;11.940;2022-10-16T04:19:53;96888.34;;;15.68;100.00
36598;BME280;22607;49.550;11.940;2022-10-16T04:22:20;96892.00;;;15.60;100.00
36598;BME280;22607;49.550;11.940;2022-10-16T04:24:46;96893.00;;;15.66;100.00
36598;BME280;22607;49.550;11.940;2022-10-16T04:27:13;96896.66;;;15.65;100.00
36598;BME280;22607;49.550;11.940;2022-10-16T04:29:39;96896.28;;;15.68;100.00
36598;BME280;22607;49.550;11.940;2022-10-16T04:32:07;96895.03;;;15.57;100.00
36598;BME280;22607;49.550;11.940;2022-10-16T04:34:33;96887.69;;;15.59;100.00
36598;BME280;22607;49.550;11.940;2022-10-16T04:37:00;96893.63;;;15.68;100.00
36598;BME280;22607;49.550;11.940;2022-10-16T04:39:27;96886.72;;;15.67;100.00
36598;BME280;22607;49.550;11.940;2022-10-16T04:41:53;96895.25;;;15.56;100.00
36598;BME280;22607;49.550;11.940;2022-10-16T04:44:19;96894.03;;;15.65;100.00
36598;BME280;22607;49.550;11.940;2022-10-16T04:46:46;96898.09;;;15.74;100.00
36598;BME280;22607;49.550;11.940;2022-10-16T04:49:12;96902.78;;;15.59;100.00
36598;BME280;22607;49.550;11.940;2022-10-16T04:51:38;96897.09;;;15.55;100.00
36598;BME280;22607;49.550;11.940;2022-10-16T04:54:05;96899.75;;;15.62;100.00
36598;BME280;22607;49.550;11.940;2022-10-16T04:56:31;96903.38;;;15.68;100.00
36598;BME280;22607;49.550;11.940;2022-10-16T04:58:57;96907.06;;;15.67;100.00
36598;BME280;22607;49.550;11.940;2022-10-16T05:01:26;96904.41;;;15.60;100.00
36598;BME280;22607;49.550;11.940;2022-10-16T05:03:52;96912.75;;;15.57;100.00
36598;BME280;22607;49.550;11.940;2022-10-16T05:06:19;96914.41;;;15.58;100.00
36598;BME280;22607;49.550;11.940;2022-10-16T05:08:45;96910.72;;;15.59;100.00
36598;BME280;22607;49.550;11.940;2022-10-16T05:11:12;96912.34;;;15.73;100.00
36598;BME280;22607;49.550;11.940;2022-10-16T05:13:38;96921.91;;;15.47;100.00
36598;BME280;22607;49.550;11.940;2022-10-16T05:16:04;96917.41;;;15.41;100.00
36598;BME280;22607;49.550;11.940;2022-10-16T05:18:31;96914.56;;;15.36;100.00
36598;BME280;22607;49.550;11.940;2022-10-16T05:20:57;96915.16;;;15.31;100.00
36598;BME280;22607;49.550;11.940;2022-10-16T05:23:23;96912.09;;;15.28;100.00
36598;BME280;22607;49.550;11.940;2022-10-16T05:25:53;96916.19;;;15.37;100.00
36598;BME280;22607;49.550;11.940;2022-10-16T05:28:22;96900.72;;;15.41;100.00
36598;BME280;22607;49.550;11.940;2022-10-16T05:30:49;96904.56;;;15.38;100.00
36598;BME280;22607;49.550;11.940;2022-10-16T05:33:15;96910.50;;;15.33;100.00
36598;BME280;22607;49.550;11.940;2022-10-16T05:35:42;96911.72;;;15.31;100.00
36598;BME280;22607;49.550;11.940;2022-10-16T05:38:09;96907.44;;;15.30;100.00
36598;BME280;22607;49.550;11.940;2022-10-16T05:40:36;96910.28;;;15.35;100.00
36598;BME280;22607;49.550;11.940;2022-10-16T05:43:02;96913.88;;;15.00;100.00
36598;BME280;22607;49.550;11.940;2022-10-16T05:45:29;96910.25;;;15.21;100.00
36598;BME280;22607;49.550;11.940;2022-10-16T05:47:55;96915.16;;;15.25;100.00
36598;BME280;22607;49.550;11.940;2022-10-16T05:50:21;96913.97;;;15.34;100.00
36598;BME280;22607;49.550;11.940;2022-10-16T05:52:48;96914.38;;;15.38;100.00
36598;BME280;22607;49.550;11.940;2022-10-16T05:55:14;96924.13;;;15.37;100.00
36598;BME280;22607;49.550;11.940;2022-10-16T05:57:42;96913.34;;;15.39;100.00
36598;BME280;22607;49.550;11.940;2022-10-16T06:00:09;96914.16;;;15.39;100.00
36598;BME280;22607;49.550;11.940;2022-10-16T06:02:36;96922.91;;;15.40;100.00
36598;BME280;22607;49.550;11.940;2022-10-16T06:05:02;96925.75;;;15.38;100.00
36598;BME280;22607;49.550;11.940;2022-10-16T06:07:29;96921.09;;;15.40;100.00
36598;BME280;22607;49.550;11.940;2022-10-16T06:09:55;96920.25;;;15.33;100.00
36598;BME280;22607;49.550;11.940;2022-10-16T06:12:21;96924.53;;;15.34;100.00
36598;BME280;22607;49.550;11.940;2022-10-16T06:14:49;96935.72;;;15.36;100.00
36598;BME280;22607;49.550;11.940;2022-10-16T06:17:15;96937.56;;;15.42;100.00
36598;BME280;22607;49.550;11.940;2022-10-16T06:19:42;96949.78;;;15.30;100.00
36598;BME280;22607;49.550;11.940;2022-10-16T06:22:08;96960.75;;;15.27;100.00
36598;BME280;22607;49.550;11.940;2022-10-16T06:24:34;96961.53;;;15.20;100.00
36598;BME280;22607;49.550;11.940;2022-10-16T06:27:01;96960.34;;;15.23;100.00
36598;BME280;22607;49.550;11.940;2022-10-16T06:29:28;96970.72;;;15.31;100.00
36598;BME280;22607;49.550;11.940;2022-10-16T06:31:55;96975.81;;;15.33;100.00
36598;BME280;22607;49.550;11.940;2022-10-16T06:34:21;96985.78;;;15.31;100.00
36598;BME280;22607;49.550;11.940;2022-10-16T06:36:47;96979.47;;;15.32;100.00
36598;BME280;22607;49.550;11.940;2022-10-16T06:39:14;96987.25;;;15.40;100.00
36598;BME280;22607;49.550;11.940;2022-10-16T06:41:40;96994.00;;;15.56;100.00
36598;BME280;22607;49.550;11.940;2022-10-16T06:44:06;97005.00;;;15.60;100.00
36598;BME280;22607;49.550;11.940;2022-10-16T06:46:33;97011.94;;;15.68;100.00
36598;BME280;22607;49.550;11.940;2022-10-16T06:49:00;97005.03;;;15.73;100.00
36598;BME280;22607;49.550;11.940;2022-10-16T06:51:26;97009.75;;;16.66;100.00
36598;BME280;22607;49.550;11.940;2022-10-16T06:53:53;97011.28;;;17.01;100.00
36598;BME280;22607;49.550;11.940;2022-10-16T06:56:30;97010.38;;;18.56;100.00
36598;BME280;22607;49.550;11.940;2022-10-16T06:58:57;97011.13;;;19.38;100.00
36598;BME280;22607;49.550;11.940;2022-10-16T07:01:24;97008.22;;;19.09;100.00
36598;BME280;22607;49.550;11.940;2022-10-16T07:03:51;97013.28;;;18.73;100.00
36598;BME280;22607;49.550;11.940;2022-10-16T07:06:18;97015.34;;;18.90;100.00
36598;BME280;22607;49.550;11.940;2022-10-16T07:08:46;97020.69;;;18.46;100.00
36598;BME280;22607;49.550;11.940;2022-10-16T07:11:16;97022.31;;;18.91;100.00
36598;BME280;22607;49.550;11.940;2022-10-16T07:13:44;97019.78;;;20.50;100.00
36598;BME280;22607;49.550;11.940;2022-10-16T07:16:18;97022.09;;;19.91;100.00
36598;BME280;22607;49.550;11.940;2022-10-16T07:18:45;97025.81;;;19.10;100.00
36598;BME280;22607;49.550;11.940;2022-10-16T07:21:13;97030.34;;;18.66;100.00
36598;BME280;22607;49.550;11.940;2022-10-16T07:23:40;97031.94;;;18.48;100.00
36598;BME280;22607;49.550;11.940;2022-10-16T07:26:07;97028.03;;;18.25;100.00
36598;BME280;22607;49.550;11.940;2022-10-16T07:28:33;97022.97;;;18.17;100.00
36598;BME280;22607;49.550;11.940;2022-10-16T07:31:01;97031.47;;;18.51;100.00
36598;BME280;22607;49.550;11.940;2022-10-16T07:33:28;97029.56;;;19.02;100.00
36598;BME280;22607;49.550;11.940;2022-10-16T07:35:54;97040.47;;;18.94;100.00
36598;BME280;22607;49.550;11.940;2022-10-16T07:38:21;97044.69;;;18.83;100.00
36598;BME280;22607;49.550;11.940;2022-10-16T07:40:48;97055.25;;;18.46;100.00
36598;BME280;22607;49.550;11.940;2022-10-16T07:43:14;97044.03;;;18.18;100.00
36598;BME280;22607;49.550;11.940;2022-10-16T07:45:47;97059.66;;;18.08;100.00
36598;BME280;22607;49.550;11.940;2022-10-16T07:48:15;97057.50;;;17.84;100.00
36598;BME280;22607;49.550;11.940;2022-10-16T07:50:42;97071.34;;;17.54;100.00
36598;BME280;22607;49.550;11.940;2022-10-16T07:53:08;97076.00;;;17.59;100.00
36598;BME280;22607;49.550;11.940;2022-10-16T07:55:35;97065.41;;;17.59;100.00
36598;BME280;22607;49.550;11.940;2022-10-16T07:58:02;97054.75;;;17.66;100.00
36598;BME280;22607;49.550;11.940;2022-10-16T08:00:29;97053.44;;;17.82;100.00
36598;BME280;22607;49.550;11.940;2022-10-16T08:02:56;97062.69;;;18.05;100.00
36598;BME280;22607;49.550;11.940;2022-10-16T08:05:29;97075.72;;;18.20;100.00
36598;BME280;22607;49.550;11.940;2022-10-16T08:07:55;97088.13;;;18.26;100.00
36598;BME280;22607;49.550;11.940;2022-10-16T08:10:23;97083.66;;;17.88;100.00
36598;BME280;22607;49.550;11.940;2022-10-16T08:12:51;97082.03;;;17.87;100.00
36598;BME280;22607;49.550;11.940;2022-10-16T08:15:17;97098.75;;;17.87;100.00
36598;BME280;22607;49.550;11.940;2022-10-16T08:17:44;97105.00;;;17.61;100.00
36598;BME280;22607;49.550;11.940;2022-10-16T08:20:10;97107.91;;;17.52;100.00
36598;BME280;22607;49.550;11.940;2022-10-16T08:22:37;97107.53;;;17.42;100.00
36598;BME280;22607;49.550;11.940;2022-10-16T08:25:03;97098.47;;;17.63;100.00
36598;BME280;22607;49.550;11.940;2022-10-16T08:27:32;97085.66;;;17.92;100.00
36598;BME280;22607;49.550;11.940;2022-10-16T08:29:59;97065.44;;;18.23;100.00
36598;BME280;22607;49.550;11.940;2022-10-16T08:32:25;97072.06;;;18.91;100.00
36598;BME280;22607;49.550;11.940;2022-10-16T08:34:52;97075.25;;;19.18;100.00
36598;BME280;22607;49.550;11.940;2022-10-16T08:37:19;97071.28;;;18.83;100.00
36598;BME280;22607;49.550;11.940;2022-10-16T08:39:45;97076.47;;;18.78;100.00
36598;BME280;22607;49.550;11.940;2022-10-16T08:45:02;97078.19;;;18.47;100.00
36598;BME280;22607;49.550;11.940;2022-10-16T08:50:02;97078.78;;;20.29;94.74
36598;BME280;22607;49.550;11.940;2022-10-16T08:52:29;97072.88;;;20.39;93.09
36598;BME280;22607;49.550;11.940;2022-10-16T08:54:58;97082.81;;;20.20;89.95
36598;BME280;22607;49.550;11.940;2022-10-16T08:57:25;97088.34;;;19.57;97.89
36598;BME280;22607;49.550;11.940;2022-10-16T08:59:56;97096.56;;;19.55;100.00
36598;BME280;22607;49.550;11.940;2022-10-16T09:05:10;97074.28;;;20.42;94.31
36598;BME280;22607;49.550;11.940;2022-10-16T09:12:54;97085.78;;;22.25;74.54
36598;BME280;22607;49.550;11.940;2022-10-16T09:22:44;97088.47;;;20.12;88.83
36598;BME280;22607;49.550;11.940;2022-10-16T09:25:12;97075.63;;;20.20;90.96
36598;BME280;22607;49.550;11.940;2022-10-16T09:27:39;97079.31;;;20.98;88.24
36598;BME280;22607;49.550;11.940;2022-10-16T09:30:18;97078.47;;;21.74;79.15
36598;BME280;22607;49.550;11.940;2022-10-16T09:32:48;97081.41;;;22.53;76.77
36598;BME280;22607;49.550;11.940;2022-10-16T09:35:16;97069.69;;;22.54;71.43
36598;BME280;22607;49.550;11.940;2022-10-16T09:37:44;97079.47;;;22.49;71.39
36598;BME280;22607;49.550;11.940;2022-10-16T09:40:12;97090.16;;;22.49;70.50
36598;BME280;22607;49.550;11.940;2022-10-16T09:42:39;97087.81;;;22.52;69.34
36598;BME280;22607;49.550;11.940;2022-10-16T09:45:19;97091.16;;;22.60;69.95
36598;BME280;22607;49.550;11.940;2022-10-16T09:47:46;97092.63;;;22.67;69.05
36598;BME280;22607;49.550;11.940;2022-10-16T09:50:31;97091.59;;;23.08;68.08
36598;BME280;22607;49.550;11.940;2022-10-16T09:53:10;97083.88;;;22.72;71.12
36598;BME280;22607;49.550;11.940;2022-10-16T09:55:47;97089.06;;;23.18;68.37
36598;BME280;22607;49.550;11.940;2022-10-16T09:58:14;97087.28;;;23.46;65.35
36598;BME280;22607;49.550;11.940;2022-10-16T10:00:41;97092.16;;;23.10;67.25
36598;BME280;22607;49.550;11.940;2022-10-16T10:03:10;97090.16;;;22.83;67.30
36598;BME280;22607;49.550;11.940;2022-10-16T10:05:38;97090.16;;;22.83;68.84
36598;BME280;22607;49.550;11.940;2022-10-16T10:08:05;97089.28;;;23.34;64.45
36598;BME280;22607;49.550;11.940;2022-10-16T10:10:33;97102.28;;;23.25;64.38
36598;BME280;22607;49.550;11.940;2022-10-16T10:13:00;97103.81;;;22.81;65.58
36598;BME280;22607;49.550;11.940;2022-10-16T10:15:27;97109.25;;;22.87;66.71
36598;BME280;22607;49.550;11.940;2022-10-16T10:17:56;97103.69;;;22.25;69.48
36598;BME280;22607;49.550;11.940;2022-10-16T10:20:27;97116.75;;;22.38;68.17
36598;BME280;22607;49.550;11.940;2022-10-16T10:22:54;97108.22;;;22.24;69.06
36598;BME280;22607;49.550;11.940;2022-10-16T10:25:26;97110.09;;;22.24;68.94
36598;BME280;22607;49.550;11.940;2022-10-16T10:38:24;97119.47;;;21.68;73.56
36598;BME280;22607;49.550;11.940;2022-10-16T10:43:26;97115.06;;;21.09;78.31
36598;BME280;22607;49.550;11.940;2022-10-16T10:45:59;97120.03;;;21.05;82.00
36598;BME280;22607;49.550;11.940;2022-10-16T10:51:08;97119.13;;;21.64;77.29
36598;BME280;22607;49.550;11.940;2022-10-16T10:56:43;97110.41;;;21.81;78.98
36598;BME280;22607;49.550;11.940;2022-10-16T11:07:15;97107.38;;;21.77;76.89
36598;BME280;22607;49.550;11.940;2022-10-16T11:09:47;97099.94;;;21.80;78.25
36598;BME280;22607;49.550;11.940;2022-10-16T11:12:16;97099.53;;;22.00;75.99
36598;BME280;22607;49.550;11.940;2022-10-16T11:17:18;97109.41;;;21.58;82.23
36598;BME280;22607;49.550;11.940;2022-10-16T11:19:48;97112.41;;;21.74;82.98
36598;BME280;22607;49.550;11.940;2022-10-16T11:22:19;97109.03;;;21.79;81.33
36598;BME280;22607;49.550;11.940;2022-10-16T11:24:51;97109.28;;;21.65;80.29
36598;BME280;22607;49.550;11.940;2022-10-16T11:27:20;97111.00;;;21.18;87.25
36598;BME280;22607;49.550;11.940;2022-10-16T11:29:53;97116.50;;;21.53;88.66
36598;BME280;22607;49.550;11.940;2022-10-16T11:32:24;97114.25;;;21.61;85.55
36598;BME280;22607;49.550;11.940;2022-10-16T11:34:59;97119.13;;;21.64;85.23
36598;BME280;22607;49.550;11.940;2022-10-16T11:37:28;97100.94;;;21.49;84.49
36598;BME280;22607;49.550;11.940;2022-10-16T11:39:58;97104.50;;;21.14;86.10
36598;BME280;22607;49.550;11.940;2022-10-16T11:42:40;97102.97;;;21.30;86.78
36598;BME280;22607;49.550;11.940;2022-10-16T11:45:15;97094.44;;;21.57;85.61
36598;BME280;22607;49.550;11.940;2022-10-16T11:47:51;97104.97;;;21.52;83.26
36598;BME280;22607;49.550;11.940;2022-10-16T11:55:40;97107.06;;;21.74;82.05
36598;BME280;22607;49.550;11.940;2022-10-16T11:58:29;97105.44;;;21.61;83.72
36598;BME280;22607;49.550;11.940;2022-10-16T12:06:25;97107.59;;;21.35;89.17
36598;BME280;22607;49.550;11.940;2022-10-16T12:08:56;97106.00;;;21.63;87.22
36598;BME280;22607;49.550;11.940;2022-10-16T12:16:49;97102.94;;;22.29;82.50
36598;BME280;22607;49.550;11.940;2022-10-16T12:19:17;97101.56;;;22.56;82.08
36598;BME280;22607;49.550;11.940;2022-10-16T12:21:44;97111.56;;;22.32;81.37
36598;BME280;22607;49.550;11.940;2022-10-16T12:24:21;97113.66;;;22.29;81.45
36598;BME280;22607;49.550;11.940;2022-10-16T12:26:48;97113.97;;;22.16;83.87
36598;BME280;22607;49.550;11.940;2022-10-16T12:32:02;97112.63;;;22.01;84.00
36598;BME280;22607;49.550;11.940;2022-10-16T12:37:07;97120.19;;;22.51;85.33
36598;BME280;22607;49.550;11.940;2022-10-16T12:39:34;97116.94;;;22.49;80.03
36598;BME280;22607;49.550;11.940;2022-10-16T12:42:03;97109.66;;;22.61;77.35
36598;BME280;22607;49.550;11.940;2022-10-16T12:44:34;97112.31;;;22.44;78.17
36598;BME280;22607;49.550;11.940;2022-10-16T12:47:01;97113.47;;;22.19;84.36
36598;BME280;22607;49.550;11.940;2022-10-16T12:49:30;97112.88;;;22.46;80.84
36598;BME280;22607;49.550;11.940;2022-10-16T12:51:56;97111.44;;;22.55;78.27
36598;BME280;22607;49.550;11.940;2022-10-16T12:54:38;97114.78;;;22.34;88.67
36598;BME280;22607;49.550;11.940;2022-10-16T13:00:43;97123.09;;;22.32;86.05
36598;BME280;22607;49.550;11.940;2022-10-16T13:07:46;97119.53;;;22.43;81.69
36598;BME280;22607;49.550;11.940;2022-10-16T13:18:14;97118.22;;;22.46;82.75
36598;BME280;22607;49.550;11.940;2022-10-16T13:28:27;97121.78;;;22.35;92.46
36598;BME280;22607;49.550;11.940;2022-10-16T13:30:56;97128.88;;;22.58;84.95
36598;BME280;22607;49.550;11.940;2022-10-16T13:33:32;97134.94;;;22.53;83.37
36598;BME280;22607;49.550;11.940;2022-10-16T13:35:59;97134.59;;;22.33;81.57
36598;BME280;22607;49.550;11.940;2022-10-16T13:38:27;97133.41;;;22.58;79.60
36598;BME280;22607;49.550;11.940;2022-10-16T13:40:58;97127.09;;;22.64;77.71
36598;BME280;22607;49.550;11.940;2022-10-16T13:48:20;97131.13;;;22.32;72.06
36598;BME280;22607;49.550;11.940;2022-10-16T13:50:57;97131.75;;;22.39;72.88
36598;BME280;22607;49.550;11.940;2022-10-16T13:53:24;97133.13;;;22.42;78.89
36598;BME280;22607;49.550;11.940;2022-10-16T13:55:50;97132.75;;;22.50;71.65
36598;BME280;22607;49.550;11.940;2022-10-16T13:58:16;97130.75;;;22.28;74.70
36598;BME280;22607;49.550;11.940;2022-10-16T14:00:57;97132.81;;;22.38;69.75
36598;BME280;22607;49.550;11.940;2022-10-16T14:03:24;97139.16;;;22.20;69.56
36598;BME280;22607;49.550;11.940;2022-10-16T14:05:53;97144.97;;;22.29;71.79
36598;BME280;22607;49.550;11.940;2022-10-16T14:08:21;97139.78;;;22.39;71.82
36598;BME280;22607;49.550;11.940;2022-10-16T14:10:49;97145.44;;;22.43;69.27
36598;BME280;22607;49.550;11.940;2022-10-16T14:13:17;97148.47;;;22.47;69.05
36598;BME280;22607;49.550;11.940;2022-10-16T14:15:46;97150.88;;;22.60;79.79
36598;BME280;22607;49.550;11.940;2022-10-16T14:18:15;97160.16;;;22.58;81.97
36598;BME280;22607;49.550;11.940;2022-10-16T14:20:44;97151.16;;;22.47;84.65
36598;BME280;22607;49.550;11.940;2022-10-16T14:23:23;97157.31;;;22.47;83.44
36598;BME280;22607;49.550;11.940;2022-10-16T14:26:05;97154.84;;;22.28;85.38
36598;BME280;22607;49.550;11.940;2022-10-16T14:28:32;97154.94;;;22.05;89.41
36598;BME280;22607;49.550;11.940;2022-10-16T14:30:59;97156.44;;;22.29;85.58
36598;BME280;22607;49.550;11.940;2022-10-16T14:36:00;97157.06;;;22.02;92.46
36598;BME280;22607;49.550;11.940;2022-10-16T14:38:27;97161.91;;;22.06;93.19
36598;BME280;22607;49.550;11.940;2022-10-16T14:40:53;97162.78;;;22.23;89.62
36598;BME280;22607;49.550;11.940;2022-10-16T14:43:21;97164.16;;;22.26;87.39
36598;BME280;22607;49.550;11.940;2022-10-16T14:45:51;97174.66;;;22.15;88.98